Diomede, Alaska
Current Conditions -  °F | °C
As of 3:13 PM on Saturday 25 Oct 2014 (Local Time) from PATE Reporting Station
Light Snow Light Snow  
Wind Chill: 23°   Ceiling: 7500
Heat Index: 30°   Visibility: 9mi
Dew Point: 30°   Wind: 7mph
Humidity: 100%   Direction: 220°SW
Pressure: 29.54"   Gusts: NA
Location:  65.1617°N, 164.975°W
Report Text: PATE 252313Z AUTO 22006KT 9SM -SN FEW006 BKN075 OVC090 M01/M01 A2954 RMK AO2 P0000 FZRANO
Loading
Personal Weather Stations






























Interactive Weather Map
Tropical Storm Tracking
New forecast layout! Learn more

10-Day Weather Forecast

Advertisements
Track Severe Weather on mobile